createdAt,value
2023-04-03T00:01:41.703Z,2.05
2023-04-03T00:04:08.486Z,1.50
2023-04-03T00:06:36.155Z,1.95
2023-04-03T00:09:02.954Z,1.80
2023-04-03T00:11:29.766Z,1.80
2023-04-03T00:13:56.609Z,1.63
2023-04-03T00:16:23.414Z,1.95
2023-04-03T00:18:50.256Z,1.40
2023-04-03T00:21:17.148Z,1.65
2023-04-03T00:23:43.955Z,2.03
2023-04-03T00:26:10.879Z,2.00
2023-04-03T00:28:40.255Z,3.28
2023-04-03T00:31:07.019Z,2.05
2023-04-03T00:33:33.747Z,1.50
2023-04-03T00:36:00.708Z,1.65
2023-04-03T00:38:28.505Z,1.52
2023-04-03T00:40:55.410Z,1.40
2023-04-03T00:43:25.679Z,1.95
2023-04-03T00:45:54.669Z,1.63
2023-04-03T00:48:26.667Z,1.48
2023-04-03T00:50:54.015Z,1.52
2023-04-03T00:53:26.609Z,1.23
2023-04-03T00:55:56.274Z,2.45
2023-04-03T00:58:32.838Z,2.38
2023-04-03T01:01:00.991Z,1.85
2023-04-03T01:03:27.962Z,1.80
2023-04-03T01:05:55.819Z,1.52
2023-04-03T01:08:22.797Z,1.75
2023-04-03T01:10:50.329Z,1.70
2023-04-03T01:13:26.813Z,1.63
2023-04-03T01:15:54.989Z,1.98
2023-04-03T01:18:24.945Z,1.98
2023-04-03T01:21:16.068Z,2.05
2023-04-03T01:24:19.594Z,1.70
2023-04-03T01:26:46.778Z,1.48
2023-04-03T01:29:13.481Z,1.63
2023-04-03T01:31:54.440Z,1.73
2023-04-03T01:34:21.589Z,1.40
2023-04-03T01:36:48.616Z,1.58
2023-04-03T01:39:16.201Z,1.50
2023-04-03T01:41:43.450Z,1.48
2023-04-03T01:44:19.702Z,1.40
2023-04-03T01:46:46.719Z,1.35
2023-04-03T01:49:13.843Z,1.23
2023-04-03T01:51:40.608Z,2.03
2023-04-03T01:54:07.346Z,2.00
2023-04-03T01:56:34.218Z,2.25
2023-04-03T01:59:01.022Z,2.80
2023-04-03T02:01:27.979Z,1.88
2023-04-03T02:03:54.810Z,1.85
2023-04-03T02:06:21.656Z,1.73
2023-04-03T02:08:48.401Z,1.40
2023-04-03T02:11:15.467Z,1.55
2023-04-03T02:13:42.211Z,1.60
2023-04-03T02:16:11.074Z,1.23
2023-04-03T02:18:39.280Z,1.40
2023-04-03T02:21:06.734Z,1.63
2023-04-03T02:23:34.647Z,1.00
2023-04-03T02:26:09.882Z,1.20
2023-04-03T02:28:39.565Z,1.10
2023-04-03T02:31:07.641Z,1.20
2023-04-03T02:33:37.618Z,1.45
2023-04-03T02:36:08.163Z,1.45
2023-04-03T02:38:36.122Z,1.02
2023-04-03T02:41:12.841Z,1.52
2023-04-03T02:43:40.413Z,1.73
2023-04-03T02:46:08.104Z,1.77
2023-04-03T02:48:35.448Z,1.23
2023-04-03T02:51:02.297Z,1.70
2023-04-03T02:53:29.398Z,1.40
2023-04-03T02:55:56.645Z,1.40
2023-04-03T02:58:23.483Z,1.25
2023-04-03T03:00:51.132Z,1.30
2023-04-03T03:03:18.025Z,1.27
2023-04-03T03:05:44.841Z,1.25
2023-04-03T03:08:12.174Z,1.77
2023-04-03T03:10:39.147Z,1.52
2023-04-03T03:13:07.751Z,1.67
2023-04-03T03:15:34.435Z,1.75
2023-04-03T03:18:02.893Z,1.70
2023-04-03T03:20:29.753Z,1.40
2023-04-03T03:22:56.626Z,1.42
2023-04-03T03:25:25.917Z,1.40
2023-04-03T03:27:52.673Z,1.50
2023-04-03T03:30:19.404Z,1.50
2023-04-03T03:32:46.684Z,1.35
2023-04-03T03:35:13.380Z,1.15
2023-04-03T03:37:40.344Z,1.20
2023-04-03T03:40:08.021Z,1.40
2023-04-03T03:42:34.963Z,1.20
2023-04-03T03:45:02.729Z,1.77
2023-04-03T03:47:29.497Z,1.38
2023-04-03T03:49:57.017Z,1.50
2023-04-03T03:52:23.899Z,1.65
2023-04-03T03:54:50.672Z,1.20
2023-04-03T03:57:17.837Z,1.38
2023-04-03T03:59:45.323Z,1.10
2023-04-03T04:02:12.634Z,1.50
2023-04-03T04:04:39.411Z,1.60
2023-04-03T04:07:06.354Z,1.40
2023-04-03T04:09:34.365Z,1.25
2023-04-03T04:12:01.396Z,1.40
2023-04-03T04:14:29.610Z,1.73
2023-04-03T04:16:57.333Z,1.90
2023-04-03T04:19:26.908Z,1.65
2023-04-03T04:21:54.537Z,1.90
2023-04-03T04:24:21.440Z,1.70
2023-04-03T04:26:49.983Z,1.80
2023-04-03T04:29:17.780Z,1.77
2023-04-03T04:31:47.860Z,1.80
2023-04-03T04:34:15.559Z,1.60
2023-04-03T04:36:42.997Z,1.65
2023-04-03T04:39:10.342Z,2.15
2023-04-03T04:41:37.585Z,2.30
2023-04-03T04:44:06.473Z,2.45
2023-04-03T04:46:33.894Z,2.33
2023-04-03T04:49:00.966Z,2.40
2023-04-03T04:51:35.117Z,2.50
2023-04-03T04:54:10.806Z,2.30
2023-04-03T04:56:38.333Z,2.35
2023-04-03T04:59:05.257Z,2.15
2023-04-03T05:01:32.303Z,2.10
2023-04-03T05:04:13.887Z,1.90
2023-04-03T05:06:41.154Z,2.30
2023-04-03T05:09:13.329Z,2.25
2023-04-03T05:11:44.045Z,2.42
2023-04-03T05:14:11.852Z,2.10
2023-04-03T05:16:38.642Z,2.50
2023-04-03T05:19:07.633Z,2.15
2023-04-03T05:21:35.175Z,3.25
2023-04-03T05:24:10.111Z,2.38
2023-04-03T05:26:39.710Z,2.28
2023-04-03T05:29:07.688Z,3.03
2023-04-03T05:31:35.001Z,2.85
2023-04-03T05:34:02.013Z,3.05
2023-04-03T05:36:31.234Z,2.88
2023-04-03T05:39:05.064Z,2.95
2023-04-03T05:41:33.787Z,2.30
2023-04-03T05:44:01.449Z,2.70
2023-04-03T05:46:28.252Z,2.53
2023-04-03T05:48:57.280Z,2.80
2023-04-03T05:51:34.375Z,3.08
2023-04-03T05:54:19.952Z,2.67
2023-04-03T05:56:47.635Z,2.67
2023-04-03T05:59:14.515Z,3.22
2023-04-03T06:01:41.617Z,3.72
2023-04-03T06:04:10.198Z,4.90
2023-04-03T06:06:48.500Z,8.50
2023-04-03T06:11:45.169Z,5.97
2023-04-03T06:14:12.367Z,5.90
2023-04-03T06:16:40.262Z,4.80
2023-04-03T06:19:12.027Z,4.18
2023-04-03T06:21:44.617Z,4.53
2023-04-03T06:24:16.189Z,5.60
2023-04-03T06:26:43.772Z,4.63
2023-04-03T06:29:10.822Z,5.25
2023-04-03T06:31:37.878Z,7.80
2023-04-03T06:34:06.225Z,8.18
2023-04-03T06:36:35.546Z,6.38
2023-04-03T06:39:04.054Z,6.63
2023-04-03T06:41:31.230Z,7.07
2023-04-03T06:43:59.512Z,7.35
2023-04-03T06:46:27.955Z,4.57
2023-04-03T06:48:55.040Z,4.22
2023-04-03T06:51:29.555Z,4.15
2023-04-03T06:53:58.842Z,4.30
2023-04-03T06:56:27.427Z,4.93
2023-04-03T06:58:55.874Z,4.38
2023-04-03T07:01:22.818Z,3.78
2023-04-03T07:03:50.241Z,3.90
2023-04-03T07:06:18.112Z,4.60
2023-04-03T07:08:46.179Z,3.60
2023-04-03T07:11:13.636Z,4.97
2023-04-03T07:13:41.040Z,5.82
2023-04-03T07:16:08.589Z,4.93
2023-04-03T07:18:36.149Z,4.03
2023-04-03T07:21:03.741Z,3.00
2023-04-03T07:23:30.760Z,2.65
2023-04-03T07:25:57.511Z,2.67
2023-04-03T07:28:25.449Z,3.92
2023-04-03T07:31:03.797Z,2.38
2023-04-03T07:33:30.812Z,2.13
2023-04-03T07:35:58.100Z,2.28
2023-04-03T07:38:25.082Z,2.33
2023-04-03T07:40:53.756Z,2.75
2023-04-03T07:43:22.883Z,2.35
2023-04-03T07:45:53.160Z,2.60
2023-04-03T07:48:21.587Z,2.88
2023-04-03T07:50:48.368Z,2.95
2023-04-03T07:53:15.473Z,4.00
2023-04-03T07:55:45.304Z,3.92
2023-04-03T07:58:14.008Z,4.47
2023-04-03T08:00:41.064Z,4.20
2023-04-03T08:03:12.087Z,3.78
2023-04-03T08:05:43.153Z,3.42
2023-04-03T08:08:12.886Z,2.58
2023-04-03T08:10:40.363Z,2.60
2023-04-03T08:13:08.161Z,2.30
2023-04-03T08:15:35.458Z,2.05
2023-04-03T08:18:02.565Z,4.90
2023-04-03T08:20:29.536Z,3.63
2023-04-03T08:22:56.375Z,5.07
2023-04-03T08:25:23.541Z,3.92
2023-04-03T08:27:50.290Z,3.03
2023-04-03T08:30:17.175Z,6.57
2023-04-03T08:32:45.156Z,4.38
2023-04-03T08:35:12.346Z,2.00
2023-04-03T08:37:40.483Z,1.70
2023-04-03T08:40:12.474Z,2.80
2023-04-03T08:42:50.203Z,1.42
2023-04-03T08:45:44.140Z,1.30
2023-04-03T08:48:21.270Z,1.20
2023-04-03T08:53:24.091Z,1.17
2023-04-03T08:55:52.404Z,1.52
2023-04-03T08:58:34.673Z,1.30
2023-04-03T09:01:08.124Z,2.10
2023-04-03T09:03:41.402Z,2.05
2023-04-03T09:06:16.221Z,1.67
2023-04-03T09:09:11.833Z,1.77
2023-04-03T09:12:16.019Z,1.70
2023-04-03T09:15:06.765Z,1.17
2023-04-03T09:17:39.759Z,1.58
2023-04-03T09:20:41.629Z,1.83
2023-04-03T09:23:28.220Z,2.58
2023-04-03T09:26:04.852Z,4.88
2023-04-03T09:28:42.908Z,1.63
2023-04-03T09:31:21.405Z,1.50
2023-04-03T09:33:54.405Z,1.30
2023-04-03T09:36:54.935Z,1.20
2023-04-03T09:39:30.099Z,1.77
2023-04-03T09:41:59.545Z,1.50
2023-04-03T09:44:31.355Z,1.45
2023-04-03T09:46:59.054Z,2.30
2023-04-03T09:49:25.988Z,1.83
2023-04-03T09:51:52.792Z,3.58
2023-04-03T09:54:31.738Z,2.30
2023-04-03T09:57:04.981Z,1.80
2023-04-03T09:59:32.852Z,1.88
2023-04-03T10:02:34.449Z,2.65
2023-04-03T10:07:44.427Z,1.75
2023-04-03T10:10:16.051Z,1.65
2023-04-03T10:12:42.877Z,3.47
2023-04-03T10:15:15.538Z,2.00
2023-04-03T10:18:17.925Z,1.30
2023-04-03T10:20:53.701Z,1.55
2023-04-03T10:23:34.207Z,1.20
2023-04-03T10:26:14.582Z,1.60
2023-04-03T10:28:50.500Z,1.10
2023-04-03T10:31:30.101Z,1.00
2023-04-03T10:34:26.164Z,1.30
2023-04-03T10:37:12.162Z,2.80
2023-04-03T10:39:41.950Z,7.35
2023-04-03T10:42:27.311Z,14.65
2023-04-03T10:45:12.267Z,2.15
2023-04-03T10:48:05.253Z,2.35
2023-04-03T10:50:58.924Z,1.95
2023-04-03T10:53:38.059Z,1.63
2023-04-03T10:56:23.015Z,1.20
2023-04-03T10:58:55.855Z,0.80
2023-04-03T11:01:28.691Z,1.55
2023-04-03T11:03:59.664Z,3.08
2023-04-03T11:06:35.421Z,1.20
2023-04-03T11:09:07.870Z,1.08
2023-04-03T11:11:37.750Z,1.80
2023-04-03T11:14:18.886Z,2.75
2023-04-03T11:16:54.761Z,1.05
2023-04-03T11:19:35.120Z,2.88
2023-04-03T11:22:14.931Z,5.35
2023-04-03T11:24:44.558Z,2.08
2023-04-03T11:27:23.564Z,1.15
2023-04-03T11:29:53.102Z,1.23
2023-04-03T11:33:03.033Z,1.13
2023-04-03T11:35:30.569Z,1.17
2023-04-03T11:37:58.552Z,1.40
2023-04-03T11:40:33.943Z,2.00
2023-04-03T11:43:00.644Z,1.90
2023-04-03T11:45:35.657Z,1.60
2023-04-03T11:48:23.429Z,1.60
2023-04-03T11:50:51.590Z,1.80
2023-04-03T11:53:18.232Z,1.85
2023-04-03T11:55:54.815Z,1.70
2023-04-03T11:58:23.562Z,4.05
2023-04-03T12:01:07.206Z,2.45
2023-04-03T12:04:03.789Z,1.10
2023-04-03T12:06:33.587Z,1.67
2023-04-03T12:09:00.498Z,1.35
2023-04-03T12:11:31.903Z,1.13
2023-04-03T12:13:58.624Z,1.33
2023-04-03T12:16:38.594Z,1.02
2023-04-03T12:22:10.876Z,1.80
2023-04-03T12:24:40.907Z,1.40
2023-04-03T12:27:23.450Z,0.90
2023-04-03T12:30:06.886Z,1.20
2023-04-03T12:33:18.646Z,1.20
2023-04-03T12:36:01.959Z,1.10
2023-04-03T12:38:35.433Z,0.70
2023-04-03T12:41:30.079Z,0.82
2023-04-03T12:44:18.148Z,0.90
2023-04-03T12:46:49.481Z,0.90
2023-04-03T12:49:39.610Z,0.90
2023-04-03T12:52:23.689Z,1.15
2023-04-03T12:54:52.425Z,1.13
2023-04-03T12:57:26.126Z,1.00
2023-04-03T12:59:53.187Z,1.30
2023-04-03T13:02:47.422Z,1.10
2023-04-03T13:05:19.385Z,1.15
2023-04-03T13:07:51.172Z,1.25
2023-04-03T13:10:19.523Z,1.35
2023-04-03T13:12:47.152Z,1.63
2023-04-03T13:15:21.302Z,1.30
2023-04-03T13:17:51.120Z,1.23
2023-04-03T13:20:35.468Z,1.20
2023-04-03T13:23:09.863Z,1.40
2023-04-03T13:25:43.926Z,1.25
2023-04-03T13:28:14.666Z,1.38
2023-04-03T13:30:54.896Z,1.73
2023-04-03T13:33:27.918Z,1.45
2023-04-03T13:36:14.851Z,1.33
2023-04-03T13:38:41.717Z,1.23
2023-04-03T13:41:30.633Z,1.40
2023-04-03T13:44:03.450Z,1.83
2023-04-03T13:46:37.315Z,1.35
2023-04-03T13:49:21.724Z,1.15
2023-04-03T13:51:57.095Z,1.35
2023-04-03T13:54:33.618Z,1.33
2023-04-03T13:57:02.250Z,1.30
2023-04-03T13:59:36.473Z,1.42
2023-04-03T14:02:03.247Z,1.33
2023-04-03T14:04:54.256Z,1.20
2023-04-03T14:07:22.418Z,1.40
2023-04-03T14:09:49.560Z,1.30
2023-04-03T14:12:30.769Z,1.20
2023-04-03T14:15:02.043Z,1.30
2023-04-03T14:17:29.573Z,1.20
2023-04-03T14:19:57.526Z,1.35
2023-04-03T14:22:29.480Z,1.60
2023-04-03T14:24:57.201Z,1.80
2023-04-03T14:27:28.026Z,1.40
2023-04-03T14:29:56.832Z,1.40
2023-04-03T14:32:25.405Z,1.50
2023-04-03T14:34:53.407Z,1.40
2023-04-03T14:37:27.517Z,1.15
2023-04-03T14:39:55.220Z,1.67
2023-04-03T14:42:28.785Z,1.50
2023-04-03T14:44:55.884Z,1.55
2023-04-03T14:47:31.094Z,1.70
2023-04-03T14:50:04.535Z,1.60
2023-04-03T14:52:34.229Z,1.95
2023-04-03T14:55:02.533Z,1.40
2023-04-03T14:57:31.290Z,1.25
2023-04-03T14:59:58.129Z,1.40
2023-04-03T15:02:39.407Z,1.98
2023-04-03T15:05:10.294Z,1.70
2023-04-03T15:07:40.182Z,1.52
2023-04-03T15:10:20.757Z,1.50
2023-04-03T15:12:49.017Z,1.58
2023-04-03T15:15:17.840Z,1.35
2023-04-03T15:17:45.807Z,1.40
2023-04-03T15:20:22.091Z,1.42
2023-04-03T15:22:49.551Z,1.52
2023-04-03T15:25:16.644Z,1.50
2023-04-03T15:27:43.789Z,1.20
2023-04-03T15:30:17.085Z,1.55
2023-04-03T15:32:44.005Z,1.40
2023-04-03T15:35:11.252Z,1.48
2023-04-03T15:37:38.149Z,1.30
2023-04-03T15:40:06.548Z,1.40
2023-04-03T15:42:33.709Z,1.42
2023-04-03T15:45:00.832Z,1.10
2023-04-03T15:47:28.683Z,1.30
2023-04-03T15:49:56.022Z,1.30
2023-04-03T15:52:22.972Z,1.42
2023-04-03T15:54:49.891Z,1.50
2023-04-03T15:57:16.825Z,1.40
2023-04-03T15:59:43.665Z,1.40
2023-04-03T16:02:14.060Z,1.30
2023-04-03T16:04:41.982Z,1.20
2023-04-03T16:07:08.979Z,1.23
2023-04-03T16:09:36.492Z,1.50
2023-04-03T16:12:04.073Z,1.23
2023-04-03T16:14:31.508Z,1.30
2023-04-03T16:17:00.979Z,1.42
2023-04-03T16:19:27.931Z,1.40
2023-04-03T16:21:55.877Z,1.40
2023-04-03T16:24:23.047Z,2.03
2023-04-03T16:26:49.871Z,2.28
2023-04-03T16:29:16.854Z,1.70
2023-04-03T16:31:43.754Z,1.40
2023-04-03T16:34:10.838Z,1.38
2023-04-03T16:36:38.667Z,1.90
2023-04-03T16:39:05.754Z,1.92
2023-04-03T16:41:33.144Z,2.20
2023-04-03T16:44:00.087Z,2.90
2023-04-03T16:46:27.082Z,2.25
2023-04-03T16:48:53.998Z,2.20
2023-04-03T16:51:20.951Z,2.00
2023-04-03T16:53:47.900Z,1.95
2023-04-03T16:56:14.685Z,2.60
2023-04-03T16:58:42.707Z,3.08
2023-04-03T17:01:11.923Z,2.80
2023-04-03T17:03:39.795Z,2.58
2023-04-03T17:06:06.962Z,3.22
2023-04-03T17:08:34.547Z,2.80
2023-04-03T17:11:01.464Z,2.10
2023-04-03T17:13:32.446Z,3.00
2023-04-03T17:15:59.720Z,2.47
2023-04-03T17:18:27.933Z,3.13
2023-04-03T17:20:56.214Z,3.65
2023-04-03T17:23:24.287Z,3.60
2023-04-03T17:25:51.509Z,3.25
2023-04-03T17:28:18.580Z,2.97
2023-04-03T17:30:45.433Z,3.00
2023-04-03T17:33:12.404Z,3.13
2023-04-03T17:35:40.321Z,3.35
2023-04-03T17:38:07.341Z,4.10
2023-04-03T17:40:34.222Z,3.78
2023-04-03T17:43:01.206Z,3.25
2023-04-03T17:45:28.080Z,3.17
2023-04-03T17:47:54.881Z,2.47
2023-04-03T17:50:21.806Z,2.75
2023-04-03T17:52:48.809Z,2.70
2023-04-03T17:55:17.774Z,3.08
2023-04-03T17:57:44.577Z,3.45
2023-04-03T18:00:12.202Z,5.35
2023-04-03T18:02:42.435Z,6.28
2023-04-03T18:05:10.294Z,5.07
2023-04-03T18:07:39.205Z,5.00
2023-04-03T18:10:08.887Z,5.18
2023-04-03T18:12:37.462Z,7.93
2023-04-03T18:15:06.443Z,8.75
2023-04-03T18:17:33.454Z,9.15
2023-04-03T18:20:00.440Z,10.00
2023-04-03T18:22:27.411Z,2.90
2023-04-03T18:24:54.161Z,3.30
2023-04-03T18:27:25.546Z,6.90
2023-04-03T18:30:07.190Z,2.90
2023-04-03T18:32:33.980Z,1.98
2023-04-03T18:35:01.099Z,2.17
2023-04-03T18:37:28.277Z,1.70
2023-04-03T18:39:55.129Z,1.40
2023-04-03T18:42:24.959Z,1.83
2023-04-03T18:44:55.989Z,2.17
2023-04-03T18:47:27.107Z,3.28
2023-04-03T18:49:54.153Z,8.88
2023-04-03T18:52:21.153Z,7.35
2023-04-03T18:54:47.985Z,11.05
2023-04-03T18:57:16.104Z,10.10
2023-04-03T18:59:42.995Z,7.85
2023-04-03T19:02:10.973Z,6.85
2023-04-03T19:04:38.232Z,4.80
2023-04-03T19:07:06.670Z,5.22
2023-04-03T19:09:33.653Z,2.67
2023-04-03T19:12:02.027Z,3.47
2023-04-03T19:14:28.954Z,1.60
2023-04-03T19:16:56.405Z,1.40
2023-04-03T19:19:23.480Z,1.50
2023-04-03T19:21:51.065Z,1.40
2023-04-03T19:24:19.126Z,1.30
2023-04-03T19:26:46.247Z,1.27
2023-04-03T19:29:13.543Z,1.40
2023-04-03T19:31:40.598Z,1.30
2023-04-03T19:34:08.240Z,1.45
2023-04-03T19:36:36.341Z,1.20
2023-04-03T19:39:04.279Z,1.30
2023-04-03T19:41:34.116Z,1.30
2023-04-03T19:44:01.378Z,1.23
2023-04-03T19:46:29.858Z,1.33
2023-04-03T19:48:57.640Z,1.20
2023-04-03T19:51:24.553Z,1.20
2023-04-03T19:53:53.234Z,1.40
2023-04-03T19:56:21.558Z,1.48
2023-04-03T19:58:54.331Z,1.33
2023-04-03T20:01:24.706Z,1.25
2023-04-03T20:03:52.063Z,1.25
2023-04-03T20:06:19.268Z,1.20
2023-04-03T20:08:46.437Z,0.90
2023-04-03T20:11:13.685Z,1.05
2023-04-03T20:13:40.874Z,1.20
2023-04-03T20:16:09.090Z,1.38
2023-04-03T20:18:37.019Z,1.38
2023-04-03T20:21:06.022Z,1.27
2023-04-03T20:23:34.189Z,0.98
2023-04-03T20:26:10.619Z,1.08
2023-04-03T20:28:45.579Z,1.30
2023-04-03T20:31:14.489Z,1.00
2023-04-03T20:33:41.497Z,1.50
2023-04-03T20:36:08.560Z,1.10
2023-04-03T20:38:35.539Z,1.00
2023-04-03T20:41:02.364Z,0.93
2023-04-03T20:43:29.498Z,1.05
2023-04-03T20:45:56.776Z,1.17
2023-04-03T20:48:23.746Z,1.30
2023-04-03T20:50:51.146Z,1.13
2023-04-03T20:53:22.812Z,1.10
2023-04-03T20:56:01.220Z,1.05
2023-04-03T20:58:35.664Z,1.30
2023-04-03T21:01:02.812Z,1.20
2023-04-03T21:03:30.743Z,1.05
2023-04-03T21:06:00.635Z,1.30
2023-04-03T21:09:05.633Z,1.45
2023-04-03T21:12:10.069Z,1.83
2023-04-03T21:15:14.786Z,1.40
2023-04-03T21:18:02.765Z,1.40
2023-04-03T21:20:31.559Z,1.20
2023-04-03T21:22:58.441Z,1.30
2023-04-03T21:25:27.028Z,1.20
2023-04-03T21:27:54.786Z,1.20
2023-04-03T21:30:22.272Z,1.10
2023-04-03T21:32:49.091Z,1.10
2023-04-03T21:35:15.970Z,0.90
2023-04-03T21:37:42.872Z,1.05
2023-04-03T21:40:09.987Z,0.82
2023-04-03T21:42:37.378Z,1.00
2023-04-03T21:45:04.512Z,0.80
2023-04-03T21:47:31.324Z,1.10
2023-04-03T21:49:59.357Z,1.00
2023-04-03T21:52:26.288Z,0.80
2023-04-03T21:54:53.176Z,1.02
2023-04-03T21:57:21.108Z,1.17
2023-04-03T21:59:49.243Z,1.83
2023-04-03T22:02:16.109Z,1.40
2023-04-03T22:04:43.071Z,1.92
2023-04-03T22:07:09.902Z,1.20
2023-04-03T22:09:36.732Z,1.15
2023-04-03T22:12:04.943Z,1.15
2023-04-03T22:14:31.825Z,1.23
2023-04-03T22:16:59.023Z,1.25
2023-04-03T22:19:25.861Z,1.08
2023-04-03T22:21:52.851Z,1.00
2023-04-03T22:24:20.431Z,1.00
2023-04-03T22:26:48.192Z,1.10
2023-04-03T22:29:15.986Z,0.95
2023-04-03T22:31:42.977Z,1.17
2023-04-03T22:34:10.075Z,0.90
2023-04-03T22:36:43.080Z,1.00
2023-04-03T22:39:12.229Z,0.98
2023-04-03T22:41:39.039Z,1.17
2023-04-03T22:44:06.311Z,1.00
2023-04-03T22:46:33.096Z,0.90
2023-04-03T22:48:59.935Z,1.05
2023-04-03T22:51:26.709Z,0.70
2023-04-03T22:53:53.513Z,1.60
2023-04-03T22:56:23.886Z,0.80
2023-04-03T22:58:52.321Z,1.05
2023-04-03T23:03:46.946Z,1.13
2023-04-03T23:06:14.251Z,1.08
2023-04-03T23:08:42.178Z,1.10
2023-04-03T23:11:12.214Z,0.90
2023-04-03T23:13:39.054Z,1.30
2023-04-03T23:16:06.059Z,1.20
2023-04-03T23:18:33.534Z,1.35
2023-04-03T23:21:01.849Z,1.05
2023-04-03T23:23:28.956Z,1.10
2023-04-03T23:25:58.727Z,0.80
2023-04-03T23:28:27.363Z,1.08
2023-04-03T23:31:01.814Z,1.20
2023-04-03T23:33:30.802Z,1.30
2023-04-03T23:35:58.678Z,1.02
2023-04-03T23:38:26.129Z,1.25
2023-04-03T23:40:53.022Z,0.82
2023-04-03T23:43:19.904Z,1.10
2023-04-03T23:45:46.873Z,0.80
2023-04-03T23:48:13.824Z,1.00
2023-04-03T23:50:41.458Z,1.02
2023-04-03T23:53:08.715Z,1.30
2023-04-03T23:55:35.818Z,1.30
2023-04-03T23:58:02.786Z,1.17
